Adams Field/Bill and Hillary Clinton National Airport

Airport
ICAO code: 
KLIT
IATA Code: 
LIT
Summary
ICAO Region: 
NAM
Territory: 
Location: 
Little Rock, Arkansas,
Serving: 
Little Rock
Elevation: 
262 ft
Coordinates: 
Aerial View: 
34° 43' 48.161" N, 92° 13' 32.741" W
Airport LOS: 
Parallel Runway Operation
Airport RE: 
Engineered Materials Arresting System
Metar
Observation
KLIT 270353Z 17005KT 10SM CLR 02/M02 A3016 RMK AO2 SLP219 T00221022
Station
Little Rock, Adams Field
Date/Time
2021-11-27 03:53:00
Wind direction
170°
Wind speed
05 kts
Lowest cloud amount
n/a
Temperature
2.2°C
Dew point
-2.2°C
Humidity
72%
Weather condition
n/a

Description

Airport serving Little Rock, Arkansas, USA, located 2 nm east of the city's business district.

Climatology

Humid “subtropical” climate (Köppen climate classification Cfa) - characterized by hot, humid summers and cool winters. Significant amounts of precipitation occur in all seasons in most areas. Winter rainfall (and sometimes snowfall) is associated with large storms that the westerlies steer from west to east. Most summer rainfall occurs during thunderstorms and occasional tropical storms (hurricanes).

Runways

Designator Length Width Surface Rops
18/36 1562 46 CON Yes/Yes
04R/22L 2195 46 CON Yes/Yes
04L/22R 2522 46 CON Yes/Yes
Airport map: 
Aerial View: 

Accidents and Serious Incidents at or in the vicinity of KLIT

SKYbrary Partners:

Safety knowledge contributed by: